createdAt,value
2023-06-07T00:00:43.047Z,19.75
2023-06-07T00:03:10.753Z,19.76
2023-06-07T00:05:38.398Z,19.68
2023-06-07T00:08:05.341Z,19.70
2023-06-07T00:10:33.178Z,19.49
2023-06-07T00:13:00.112Z,19.52
2023-06-07T00:15:26.850Z,19.29
2023-06-07T00:17:54.195Z,18.96
2023-06-07T00:20:20.819Z,18.94
2023-06-07T00:22:48.638Z,18.75
2023-06-07T00:25:15.232Z,18.64
2023-06-07T00:27:41.734Z,18.69
2023-06-07T00:30:09.010Z,18.62
2023-06-07T00:32:35.579Z,18.78
2023-06-07T00:35:02.151Z,18.74
2023-06-07T00:37:28.722Z,18.45
2023-06-07T00:39:55.306Z,18.45
2023-06-07T00:42:21.836Z,18.29
2023-06-07T00:44:48.518Z,18.14
2023-06-07T00:47:15.271Z,18.01
2023-06-07T00:49:43.711Z,18.05
2023-06-07T00:52:11.170Z,18.10
2023-06-07T00:54:38.294Z,18.02
2023-06-07T00:57:06.494Z,17.92
2023-06-07T00:59:33.228Z,17.95
2023-06-07T01:02:02.389Z,17.98
2023-06-07T01:04:30.337Z,17.99
2023-06-07T01:06:57.143Z,17.95
2023-06-07T01:09:24.893Z,18.00
2023-06-07T01:11:54.196Z,17.94
2023-06-07T01:14:22.523Z,17.87
2023-06-07T01:16:51.989Z,17.83
2023-06-07T01:19:24.716Z,17.85
2023-06-07T01:21:55.782Z,17.83
2023-06-07T01:24:23.451Z,17.76
2023-06-07T01:26:58.292Z,17.77
2023-06-07T01:29:27.211Z,17.66
2023-06-07T01:31:55.700Z,17.73
2023-06-07T01:34:22.627Z,17.76
2023-06-07T01:36:49.932Z,17.68
2023-06-07T01:39:19.770Z,17.63
2023-06-07T01:41:49.172Z,17.65
2023-06-07T01:44:16.450Z,17.54
2023-06-07T01:46:43.718Z,17.64
2023-06-07T01:49:10.351Z,17.64
2023-06-07T01:51:37.285Z,17.55
2023-06-07T01:54:05.589Z,17.44
2023-06-07T01:56:41.139Z,17.30
2023-06-07T01:59:36.940Z,17.26
2023-06-07T02:02:12.491Z,17.29
2023-06-07T02:04:46.114Z,17.19
2023-06-07T02:07:23.571Z,17.21
2023-06-07T02:09:51.743Z,17.13
2023-06-07T02:12:21.452Z,17.04
2023-06-07T02:14:52.289Z,16.99
2023-06-07T02:17:19.476Z,16.92
2023-06-07T02:19:46.409Z,16.89
2023-06-07T02:22:15.337Z,16.81
2023-06-07T02:24:42.247Z,16.83
2023-06-07T02:27:10.093Z,16.78
2023-06-07T02:29:36.703Z,16.87
2023-06-07T02:32:03.386Z,16.96
2023-06-07T02:34:33.625Z,16.96
2023-06-07T02:37:00.250Z,16.85
2023-06-07T02:39:26.862Z,16.98
2023-06-07T02:41:53.338Z,16.82
2023-06-07T02:44:19.902Z,16.77
2023-06-07T02:46:46.686Z,16.79
2023-06-07T02:49:13.330Z,16.76
2023-06-07T02:51:40.338Z,16.70
2023-06-07T02:54:10.850Z,16.76
2023-06-07T02:56:37.488Z,16.60
2023-06-07T02:59:04.077Z,16.50
2023-06-07T03:01:34.474Z,16.50
2023-06-07T03:04:01.190Z,16.43
2023-06-07T03:06:30.582Z,16.36
2023-06-07T03:08:59.877Z,16.29
2023-06-07T03:11:26.450Z,16.39
2023-06-07T03:13:52.982Z,16.66
2023-06-07T03:16:19.582Z,16.69
2023-06-07T03:18:46.571Z,16.80
2023-06-07T03:21:13.089Z,16.82
2023-06-07T03:23:39.675Z,16.87
2023-06-07T03:26:06.401Z,16.79
2023-06-07T03:28:33.218Z,16.87
2023-06-07T03:30:59.781Z,16.86
2023-06-07T03:33:26.376Z,16.87
2023-06-07T03:35:52.969Z,16.78
2023-06-07T03:38:19.529Z,16.75
2023-06-07T03:40:46.091Z,16.54
2023-06-07T03:43:12.596Z,16.61
2023-06-07T03:45:39.142Z,16.65
2023-06-07T03:48:05.976Z,16.50
2023-06-07T03:50:32.648Z,16.45
2023-06-07T03:52:59.215Z,16.42
2023-06-07T03:55:25.792Z,16.63
2023-06-07T03:57:52.786Z,16.50
2023-06-07T04:00:19.494Z,16.59
2023-06-07T04:02:46.750Z,16.56
2023-06-07T04:05:13.997Z,16.61
2023-06-07T04:07:41.870Z,16.54
2023-06-07T04:10:08.635Z,16.51
2023-06-07T04:12:35.448Z,16.49
2023-06-07T04:15:02.247Z,16.51
2023-06-07T04:17:28.795Z,16.64
2023-06-07T04:19:57.710Z,16.60
2023-06-07T04:22:25.612Z,16.52
2023-06-07T04:24:52.946Z,16.64
2023-06-07T04:27:19.760Z,16.84
2023-06-07T04:29:50.131Z,16.99
2023-06-07T04:32:20.068Z,16.94
2023-06-07T04:34:47.425Z,16.97
2023-06-07T04:37:13.993Z,16.96
2023-06-07T04:39:42.272Z,17.00
2023-06-07T04:42:10.524Z,17.28
2023-06-07T04:44:38.102Z,17.26
2023-06-07T04:47:09.876Z,16.96
2023-06-07T04:49:39.788Z,17.00
2023-06-07T04:52:06.937Z,17.17
2023-06-07T04:54:33.636Z,17.31
2023-06-07T04:57:01.013Z,17.22
2023-06-07T04:59:30.711Z,17.27
2023-06-07T05:01:57.315Z,17.43
2023-06-07T05:04:23.916Z,17.19
2023-06-07T05:06:50.519Z,17.21
2023-06-07T05:09:17.119Z,17.52
2023-06-07T05:11:43.612Z,17.88
2023-06-07T05:14:10.089Z,17.85
2023-06-07T05:16:36.918Z,17.77
2023-06-07T05:19:04.944Z,17.98
2023-06-07T05:21:31.623Z,18.44
2023-06-07T05:23:58.213Z,18.78
2023-06-07T05:26:24.821Z,19.15
2023-06-07T05:28:52.299Z,19.30
2023-06-07T05:31:20.112Z,19.53
2023-06-07T05:33:46.765Z,19.65
2023-06-07T05:36:13.320Z,19.77
2023-06-07T05:38:40.044Z,19.92
2023-06-07T05:41:06.647Z,19.81
2023-06-07T05:43:33.231Z,20.05
2023-06-07T05:45:59.801Z,20.23
2023-06-07T05:48:26.294Z,20.59
2023-06-07T05:50:53.282Z,20.74
2023-06-07T05:53:19.860Z,20.79
2023-06-07T05:55:47.179Z,21.12
2023-06-07T05:58:13.789Z,21.24
2023-06-07T06:00:41.852Z,21.35
2023-06-07T06:03:09.658Z,21.67
2023-06-07T06:05:36.327Z,22.01
2023-06-07T06:08:03.922Z,22.02
2023-06-07T06:10:32.386Z,21.89
2023-06-07T06:13:00.540Z,21.89
2023-06-07T06:15:27.115Z,21.76
2023-06-07T06:17:56.886Z,21.60
2023-06-07T06:20:23.550Z,21.74
2023-06-07T06:22:50.057Z,20.93
2023-06-07T06:25:16.677Z,21.40
2023-06-07T06:27:43.438Z,21.67
2023-06-07T06:30:10.321Z,22.02
2023-06-07T06:32:36.968Z,22.23
2023-06-07T06:35:04.374Z,22.64
2023-06-07T06:37:31.288Z,22.67
2023-06-07T06:39:58.015Z,23.03
2023-06-07T06:42:24.780Z,23.60
2023-06-07T06:44:51.306Z,23.56
2023-06-07T06:47:17.916Z,24.11
2023-06-07T06:49:44.591Z,24.52
2023-06-07T06:52:11.362Z,24.36
2023-06-07T06:54:37.833Z,24.02
2023-06-07T06:57:04.839Z,24.13
2023-06-07T06:59:31.379Z,24.57
2023-06-07T07:01:58.161Z,24.91
2023-06-07T07:04:24.796Z,24.64
2023-06-07T07:06:51.583Z,24.75
2023-06-07T07:09:20.845Z,25.38
2023-06-07T07:11:47.429Z,26.16
2023-06-07T07:14:14.113Z,26.48
2023-06-07T07:16:40.930Z,26.66
2023-06-07T07:19:07.516Z,26.43
2023-06-07T07:21:34.000Z,26.93
2023-06-07T07:24:00.586Z,27.35
2023-06-07T07:26:27.329Z,27.51
2023-06-07T07:28:54.624Z,27.58
2023-06-07T07:31:22.298Z,27.94
2023-06-07T07:33:49.364Z,27.69
2023-06-07T07:36:18.725Z,26.76
2023-06-07T07:38:47.219Z,27.39
2023-06-07T07:41:15.489Z,28.27
2023-06-07T07:43:42.084Z,28.81
2023-06-07T07:46:08.756Z,29.17
2023-06-07T07:48:35.545Z,29.10
2023-06-07T07:51:03.271Z,29.40
2023-06-07T07:53:29.826Z,29.50
2023-06-07T07:55:56.660Z,29.62
2023-06-07T07:58:23.277Z,28.63
2023-06-07T08:00:49.794Z,28.59
2023-06-07T08:03:16.662Z,28.33
2023-06-07T08:05:43.464Z,28.31
2023-06-07T08:08:09.931Z,28.51
2023-06-07T08:10:36.855Z,28.94
2023-06-07T08:13:03.415Z,29.41
2023-06-07T08:15:30.297Z,29.90
2023-06-07T08:17:56.859Z,29.68
2023-06-07T08:20:23.387Z,29.63
2023-06-07T08:22:54.340Z,29.68
2023-06-07T08:25:21.064Z,29.24
2023-06-07T08:27:47.811Z,29.01
2023-06-07T08:30:15.316Z,29.69
2023-06-07T08:32:43.468Z,30.95
2023-06-07T08:35:12.024Z,31.89
2023-06-07T08:37:39.057Z,31.66
2023-06-07T08:40:07.357Z,32.95
2023-06-07T08:42:34.455Z,33.08
2023-06-07T08:45:01.419Z,33.16
2023-06-07T08:47:29.490Z,33.53
2023-06-07T08:49:57.855Z,34.00
2023-06-07T08:52:26.055Z,32.99
2023-06-07T08:54:56.249Z,33.15
2023-06-07T08:57:23.677Z,32.21
2023-06-07T08:59:50.604Z,30.65
2023-06-07T09:02:17.735Z,31.34
2023-06-07T09:04:44.836Z,32.92
2023-06-07T09:07:11.792Z,31.93
2023-06-07T09:09:41.255Z,32.56
2023-06-07T09:12:08.154Z,33.25
2023-06-07T09:14:35.622Z,33.06
2023-06-07T09:17:04.171Z,33.41
2023-06-07T09:19:41.075Z,33.46
2023-06-07T09:22:09.873Z,33.66
2023-06-07T09:24:38.212Z,35.32
2023-06-07T09:27:05.765Z,35.76
2023-06-07T09:29:43.609Z,35.82
2023-06-07T09:32:25.614Z,35.93
2023-06-07T09:34:55.102Z,35.51
2023-06-07T09:37:22.692Z,34.44
2023-06-07T09:39:53.207Z,34.22
2023-06-07T09:42:19.831Z,33.09
2023-06-07T09:44:46.503Z,32.09
2023-06-07T09:47:24.105Z,32.22
2023-06-07T09:49:56.337Z,34.03
2023-06-07T09:52:23.436Z,34.32
2023-06-07T09:54:49.942Z,36.09
2023-06-07T09:57:25.629Z,36.84
2023-06-07T10:00:16.650Z,37.71
2023-06-07T10:02:44.501Z,37.03
2023-06-07T10:05:13.971Z,36.53
2023-06-07T10:07:46.046Z,35.59
2023-06-07T10:10:15.886Z,34.33
2023-06-07T10:12:45.348Z,36.21
2023-06-07T10:15:17.000Z,36.32
2023-06-07T10:17:55.202Z,36.38
2023-06-07T10:20:32.840Z,34.91
2023-06-07T10:23:07.520Z,35.71
2023-06-07T10:25:51.065Z,36.21
2023-06-07T10:28:22.635Z,36.58
2023-06-07T10:30:54.571Z,36.17
2023-06-07T10:33:24.218Z,36.67
2023-06-07T10:35:51.791Z,35.02
2023-06-07T10:38:19.712Z,35.35
2023-06-07T10:40:46.947Z,35.24
2023-06-07T10:43:13.665Z,36.55
2023-06-07T10:45:40.824Z,36.88
2023-06-07T10:48:34.235Z,38.07
2023-06-07T10:51:00.830Z,37.36
2023-06-07T10:53:50.373Z,36.95
2023-06-07T10:56:33.687Z,38.30
2023-06-07T10:59:15.953Z,37.84
2023-06-07T11:01:55.451Z,37.94
2023-06-07T11:04:41.110Z,36.60
2023-06-07T11:07:21.023Z,37.57
2023-06-07T11:09:49.768Z,38.13
2023-06-07T11:12:37.015Z,37.66
2023-06-07T11:15:25.903Z,37.94
2023-06-07T11:18:00.724Z,38.00
2023-06-07T11:20:39.718Z,37.64
2023-06-07T11:23:31.561Z,38.08
2023-06-07T11:26:07.454Z,38.08
2023-06-07T11:28:36.282Z,37.86
2023-06-07T11:31:04.747Z,37.45
2023-06-07T11:33:33.437Z,37.43
2023-06-07T11:36:00.093Z,38.19
2023-06-07T11:38:29.760Z,37.57
2023-06-07T11:40:57.316Z,35.65
2023-06-07T11:43:26.630Z,35.22
2023-06-07T11:45:56.631Z,36.06
2023-06-07T11:48:27.959Z,36.92
2023-06-07T11:50:55.162Z,37.61
2023-06-07T11:53:22.775Z,36.61
2023-06-07T11:55:49.596Z,36.60
2023-06-07T11:58:16.306Z,37.30
2023-06-07T12:00:45.094Z,37.31
2023-06-07T12:03:12.761Z,37.88
2023-06-07T12:05:39.423Z,38.44
2023-06-07T12:08:14.778Z,38.57
2023-06-07T12:10:41.303Z,38.53
2023-06-07T12:13:13.954Z,38.78
2023-06-07T12:15:47.523Z,37.94
2023-06-07T12:18:19.972Z,37.56
2023-06-07T12:20:49.820Z,38.29
2023-06-07T12:23:21.708Z,38.93
2023-06-07T12:25:49.181Z,38.52
2023-06-07T12:28:15.844Z,37.26
2023-06-07T12:30:43.262Z,38.36
2023-06-07T12:33:14.782Z,37.98
2023-06-07T12:35:47.116Z,38.01
2023-06-07T12:38:14.536Z,38.50
2023-06-07T12:40:41.210Z,38.93
2023-06-07T12:43:07.742Z,38.94
2023-06-07T12:45:34.283Z,38.58
2023-06-07T12:48:00.921Z,38.20
2023-06-07T12:50:27.638Z,37.96
2023-06-07T12:52:54.442Z,35.53
2023-06-07T12:55:20.954Z,34.43
2023-06-07T12:57:47.684Z,35.64
2023-06-07T13:00:15.147Z,36.77
2023-06-07T13:02:43.161Z,36.99
2023-06-07T13:05:13.783Z,35.74
2023-06-07T13:07:41.383Z,36.94
2023-06-07T13:10:09.236Z,37.49
2023-06-07T13:12:36.167Z,36.85
2023-06-07T13:15:02.809Z,37.25
2023-06-07T13:17:29.565Z,37.41
2023-06-07T13:19:56.284Z,37.50
2023-06-07T13:22:22.884Z,37.64
2023-06-07T13:24:49.450Z,37.30
2023-06-07T13:27:15.978Z,37.98
2023-06-07T13:29:42.866Z,37.56
2023-06-07T13:32:09.707Z,38.50
2023-06-07T13:34:36.432Z,38.59
2023-06-07T13:37:02.955Z,38.11
2023-06-07T13:39:29.552Z,38.16
2023-06-07T13:41:56.747Z,37.50
2023-06-07T13:44:23.383Z,37.43
2023-06-07T13:46:51.048Z,37.09
2023-06-07T13:49:18.056Z,37.21
2023-06-07T13:51:44.699Z,37.09
2023-06-07T13:54:11.368Z,37.46
2023-06-07T13:56:38.061Z,35.88
2023-06-07T13:59:04.574Z,35.84
2023-06-07T14:01:31.349Z,35.66
2023-06-07T14:03:59.045Z,34.23
2023-06-07T14:06:28.072Z,32.69
2023-06-07T14:08:54.603Z,32.59
2023-06-07T14:11:22.803Z,32.91
2023-06-07T14:13:49.368Z,32.59
2023-06-07T14:16:16.453Z,33.60
2023-06-07T14:18:42.993Z,33.39
2023-06-07T14:21:09.549Z,32.51
2023-06-07T14:23:36.269Z,32.62
2023-06-07T14:26:02.768Z,32.93
2023-06-07T14:28:29.304Z,32.37
2023-06-07T14:30:55.839Z,31.73
2023-06-07T14:33:22.351Z,31.31
2023-06-07T14:35:48.881Z,31.59
2023-06-07T14:38:15.603Z,32.24
2023-06-07T14:40:42.189Z,32.01
2023-06-07T14:43:08.724Z,32.41
2023-06-07T14:45:35.372Z,32.67
2023-06-07T14:48:06.264Z,32.27
2023-06-07T14:50:33.160Z,31.64
2023-06-07T14:53:00.522Z,31.71
2023-06-07T14:55:27.035Z,31.60
2023-06-07T14:57:54.620Z,31.75
2023-06-07T15:00:21.774Z,31.58
2023-06-07T15:02:48.364Z,31.77
2023-06-07T15:05:14.946Z,31.98
2023-06-07T15:07:41.483Z,32.31
2023-06-07T15:10:08.902Z,31.89
2023-06-07T15:12:35.790Z,31.71
2023-06-07T15:15:02.356Z,30.54
2023-06-07T15:17:28.884Z,30.88
2023-06-07T15:19:55.576Z,30.93
2023-06-07T15:22:22.073Z,31.16
2023-06-07T15:24:49.889Z,31.24
2023-06-07T15:27:16.678Z,31.10
2023-06-07T15:29:43.273Z,30.77
2023-06-07T15:32:09.760Z,30.53
2023-06-07T15:34:36.480Z,30.52
2023-06-07T15:37:03.143Z,30.39
2023-06-07T15:39:29.724Z,30.48
2023-06-07T15:41:56.301Z,30.39
2023-06-07T15:44:22.860Z,30.06
2023-06-07T15:46:50.031Z,29.69
2023-06-07T15:49:19.510Z,29.45
2023-06-07T15:51:46.783Z,29.65
2023-06-07T15:54:13.345Z,29.58
2023-06-07T15:56:43.858Z,29.43
2023-06-07T15:59:11.465Z,29.37
2023-06-07T16:01:39.030Z,29.10
2023-06-07T16:04:05.786Z,28.97
2023-06-07T16:06:33.053Z,29.09
2023-06-07T16:09:04.012Z,29.19
2023-06-07T16:11:30.616Z,29.09
2023-06-07T16:13:57.188Z,29.07
2023-06-07T16:16:23.812Z,28.65
2023-06-07T16:18:52.794Z,28.62
2023-06-07T16:21:19.744Z,28.56
2023-06-07T16:23:46.367Z,28.43
2023-06-07T16:26:12.889Z,27.79
2023-06-07T16:28:39.414Z,28.01
2023-06-07T16:31:06.045Z,28.23
2023-06-07T16:33:32.681Z,28.19
2023-06-07T16:35:59.185Z,28.00
2023-06-07T16:38:25.741Z,28.01
2023-06-07T16:40:52.244Z,27.85
2023-06-07T16:43:18.714Z,28.03
2023-06-07T16:45:45.251Z,27.72
2023-06-07T16:48:11.814Z,27.90
2023-06-07T16:50:38.446Z,27.90
2023-06-07T16:53:05.986Z,27.98
2023-06-07T16:55:32.662Z,27.67
2023-06-07T16:57:59.190Z,27.67
2023-06-07T17:00:26.274Z,27.49
2023-06-07T17:02:52.872Z,27.41
2023-06-07T17:05:21.018Z,27.49
2023-06-07T17:07:47.664Z,27.48
2023-06-07T17:10:14.327Z,27.42
2023-06-07T17:12:40.881Z,27.45
2023-06-07T17:15:07.947Z,27.37
2023-06-07T17:17:34.466Z,27.31
2023-06-07T17:20:00.957Z,27.19
2023-06-07T17:22:27.498Z,27.14
2023-06-07T17:24:54.075Z,27.02
2023-06-07T17:27:20.701Z,27.09
2023-06-07T17:29:47.175Z,27.15
2023-06-07T17:32:13.728Z,27.13
2023-06-07T17:34:40.602Z,27.23
2023-06-07T17:37:07.135Z,27.18
2023-06-07T17:39:33.679Z,27.09
2023-06-07T17:42:00.301Z,26.97
2023-06-07T17:44:27.547Z,26.96
2023-06-07T17:46:54.184Z,26.74
2023-06-07T17:49:20.779Z,26.63
2023-06-07T17:51:48.494Z,26.70
2023-06-07T17:54:15.235Z,26.53
2023-06-07T17:56:41.826Z,26.57
2023-06-07T17:59:08.414Z,26.47
2023-06-07T18:01:34.959Z,26.35
2023-06-07T18:04:06.880Z,26.15
2023-06-07T18:06:33.601Z,26.15
2023-06-07T18:09:00.111Z,26.06
2023-06-07T18:11:27.342Z,25.94
2023-06-07T18:13:53.852Z,26.00
2023-06-07T18:16:20.726Z,25.86
2023-06-07T18:18:47.272Z,25.73
2023-06-07T18:21:14.692Z,25.68
2023-06-07T18:23:41.482Z,25.67
2023-06-07T18:26:08.123Z,25.59
2023-06-07T18:28:34.890Z,25.46
2023-06-07T18:31:01.497Z,25.34
2023-06-07T18:33:31.274Z,25.05
2023-06-07T18:35:57.900Z,25.05
2023-06-07T18:38:25.277Z,25.08
2023-06-07T18:40:52.884Z,25.08
2023-06-07T18:43:20.257Z,25.24
2023-06-07T18:45:48.552Z,25.15
2023-06-07T18:48:17.707Z,25.02
2023-06-07T18:50:44.370Z,24.97
2023-06-07T18:53:13.936Z,24.93
2023-06-07T18:55:40.557Z,24.86
2023-06-07T18:58:09.273Z,24.81
2023-06-07T19:00:36.038Z,24.75
2023-06-07T19:03:02.677Z,24.77
2023-06-07T19:05:30.113Z,24.66
2023-06-07T19:07:56.693Z,24.62
2023-06-07T19:10:23.277Z,24.60
2023-06-07T19:12:49.803Z,24.68
2023-06-07T19:15:16.471Z,24.70
2023-06-07T19:17:43.024Z,24.56
2023-06-07T19:20:09.873Z,24.40
2023-06-07T19:22:36.401Z,24.31
2023-06-07T19:25:03.054Z,24.24
2023-06-07T19:27:29.844Z,24.17
2023-06-07T19:29:56.393Z,24.04
2023-06-07T19:32:22.962Z,23.90
2023-06-07T19:34:50.223Z,23.91
2023-06-07T19:37:17.050Z,23.69
2023-06-07T19:39:43.778Z,23.72
2023-06-07T19:42:12.819Z,23.68
2023-06-07T19:44:40.909Z,23.63
2023-06-07T19:47:08.560Z,23.51
2023-06-07T19:49:35.566Z,23.51
2023-06-07T19:52:03.961Z,23.54
2023-06-07T19:54:30.601Z,23.56
2023-06-07T19:56:57.220Z,23.53
2023-06-07T19:59:23.736Z,23.46
2023-06-07T20:01:50.757Z,23.48
2023-06-07T20:04:17.569Z,23.48
2023-06-07T20:06:44.516Z,23.32
2023-06-07T20:09:11.465Z,23.17
2023-06-07T20:11:38.091Z,23.13
2023-06-07T20:14:04.628Z,23.22
2023-06-07T20:16:31.496Z,23.08
2023-06-07T20:18:58.081Z,22.91
2023-06-07T20:21:24.691Z,22.74
2023-06-07T20:23:52.059Z,22.61
2023-06-07T20:26:18.664Z,22.60
2023-06-07T20:28:45.184Z,22.46
2023-06-07T20:31:11.732Z,22.60
2023-06-07T20:33:38.389Z,22.62
2023-06-07T20:36:05.218Z,22.51
2023-06-07T20:38:31.885Z,22.47
2023-06-07T20:41:00.133Z,22.54
2023-06-07T20:43:26.675Z,22.52
2023-06-07T20:45:53.295Z,22.39
2023-06-07T20:48:19.872Z,22.32
2023-06-07T20:50:46.628Z,22.40
2023-06-07T20:53:13.188Z,22.37
2023-06-07T20:55:39.686Z,22.39
2023-06-07T20:58:06.395Z,22.38
2023-06-07T21:00:32.911Z,22.40
2023-06-07T21:02:59.675Z,22.13
2023-06-07T21:05:27.072Z,22.06
2023-06-07T21:07:53.622Z,21.96
2023-06-07T21:10:20.139Z,21.99
2023-06-07T21:12:46.678Z,21.97
2023-06-07T21:15:13.315Z,21.84
2023-06-07T21:17:40.535Z,21.77
2023-06-07T21:20:09.114Z,21.61
2023-06-07T21:22:35.994Z,21.60
2023-06-07T21:25:03.321Z,21.64
2023-06-07T21:27:29.873Z,21.49
2023-06-07T21:29:56.918Z,21.55
2023-06-07T21:32:23.453Z,21.60
2023-06-07T21:34:50.012Z,21.58
2023-06-07T21:37:17.190Z,21.57
2023-06-07T21:39:45.039Z,21.49
2023-06-07T21:42:12.580Z,21.51
2023-06-07T21:44:39.480Z,21.51
2023-06-07T21:47:07.416Z,21.57
2023-06-07T21:49:34.054Z,21.56
2023-06-07T21:52:00.643Z,21.49
2023-06-07T21:54:28.376Z,21.37
2023-06-07T21:56:55.242Z,21.25
2023-06-07T21:59:24.770Z,21.12
2023-06-07T22:01:51.457Z,21.22
2023-06-07T22:04:18.052Z,21.19
2023-06-07T22:06:44.733Z,21.28
2023-06-07T22:09:12.361Z,21.25
2023-06-07T22:11:42.298Z,20.92
2023-06-07T22:14:10.508Z,20.65
2023-06-07T22:16:37.142Z,20.50
2023-06-07T22:19:03.746Z,20.59
2023-06-07T22:21:31.452Z,20.79
2023-06-07T22:23:59.004Z,20.87
2023-06-07T22:26:30.473Z,20.79
2023-06-07T22:29:05.834Z,20.90
2023-06-07T22:31:35.485Z,20.77
2023-06-07T22:34:05.581Z,20.76
2023-06-07T22:36:33.340Z,20.89
2023-06-07T22:39:01.227Z,20.91
2023-06-07T22:41:28.738Z,20.84
2023-06-07T22:43:57.358Z,20.86
2023-06-07T22:46:28.132Z,20.74
2023-06-07T22:49:01.975Z,20.66
2023-06-07T22:51:31.588Z,20.61
2023-06-07T22:53:58.211Z,20.67
2023-06-07T22:56:24.770Z,20.64
2023-06-07T22:58:51.853Z,20.67
2023-06-07T23:01:19.873Z,20.57
2023-06-07T23:03:46.797Z,20.59
2023-06-07T23:06:13.982Z,20.51
2023-06-07T23:08:40.514Z,20.46
2023-06-07T23:11:07.072Z,20.34
2023-06-07T23:13:33.751Z,20.33
2023-06-07T23:16:00.248Z,20.36
2023-06-07T23:18:31.261Z,20.40
2023-06-07T23:20:57.972Z,20.24
2023-06-07T23:23:25.059Z,20.22
2023-06-07T23:25:51.722Z,20.18
2023-06-07T23:28:18.303Z,20.19
2023-06-07T23:30:44.803Z,20.02
2023-06-07T23:33:12.958Z,20.11
2023-06-07T23:35:42.078Z,20.16
2023-06-07T23:38:08.673Z,20.11
2023-06-07T23:40:35.205Z,20.06
2023-06-07T23:43:03.259Z,20.01
2023-06-07T23:45:30.144Z,20.02
2023-06-07T23:47:56.697Z,19.99
2023-06-07T23:50:23.201Z,19.88
2023-06-07T23:52:49.735Z,19.84
2023-06-07T23:55:16.348Z,19.96
2023-06-07T23:57:42.916Z,19.75
